Time;durP1;ratioP1;P1;durP2;ratioP2;P2;SDS_P1;SDS_P2;PMS_P1;PMS_P2;Temp;Humidity;BMP_temperature;BMP_pressure;BME280_temperature;BME280_humidity;BME280_pressure;Samples;Min_cycle;Max_cycle;Signal;HPM_P1;HPM_P2
2022/07/04 00:02:04;;;;;;;;;;;18.10;74.30;;;;;;5072973;28;19908;-57
2022/07/04 00:04:29;;;;;;;;;;;18.10;74.30;;;;;;5072756;28;19995;-56
2022/07/04 00:06:55;;;;;;;;;;;18.10;74.50;;;;;;5054661;28;20591;-56
2022/07/04 00:09:20;;;;;;;;;;;18.10;74.60;;;;;;5069770;28;19913;-58
2022/07/04 00:11:46;;;;;;;;;;;18.00;74.70;;;;;;5072678;28;19934;-58
2022/07/04 00:14:11;;;;;;;;;;;18.00;75.50;;;;;;5072381;28;19954;-56
2022/07/04 00:16:37;;;;;;;;;;;17.90;74.90;;;;;;5072793;28;20339;-56
2022/07/04 00:19:02;;;;;;;;;;;17.90;76.10;;;;;;5071352;28;19970;-57
2022/07/04 00:21:28;;;;;;;;;;;17.80;75.80;;;;;;5072900;28;19909;-56
2022/07/04 00:23:53;;;;;;;;;;;17.80;75.70;;;;;;5072974;28;19915;-57
2022/07/04 00:26:19;;;;;;;;;;;17.80;75.60;;;;;;5073031;28;19974;-57
2022/07/04 00:28:45;;;;;;;;;;;17.80;76.30;;;;;;5072147;28;19921;-57
2022/07/04 00:31:10;;;;;;;;;;;17.80;75.80;;;;;;5071354;28;19961;-57
2022/07/04 00:33:36;;;;;;;;;;;17.80;76.60;;;;;;5072426;28;20261;-56
2022/07/04 00:36:01;;;;;;;;;;;17.70;76.90;;;;;;5072732;28;20323;-56
2022/07/04 00:38:27;;;;;;;;;;;17.80;76.70;;;;;;5072451;28;19916;-56
2022/07/04 00:40:52;;;;;;;;;;;17.70;77.00;;;;;;5072746;28;19916;-57
2022/07/04 00:43:22;;;;;;;;;;;17.70;77.00;;;;;;5072260;28;19961;-57
2022/07/04 00:45:47;;;;;;;;;;;17.70;77.50;;;;;;5071950;28;19927;-57
2022/07/04 00:48:15;;;;;;;;;;;17.60;77.40;;;;;;5049164;28;20012;-57
2022/07/04 00:50:42;;;;;;;;;;;17.60;77.30;;;;;;5047712;28;19962;-57
2022/07/04 00:53:07;;;;;;;;;;;17.50;77.20;;;;;;5072210;28;20004;-57
2022/07/04 00:55:33;;;;;;;;;;;17.50;76.90;;;;;;5072364;28;19932;-57
2022/07/04 00:57:58;;;;;;;;;;;17.60;77.20;;;;;;5065422;28;20308;-57
2022/07/04 01:00:24;;;;;;;;;;;17.50;77.40;;;;;;5071568;28;19916;-57
2022/07/04 01:02:49;;;;;;;;;;;17.60;76.70;;;;;;5071408;28;19912;-59
2022/07/04 01:05:15;;;;;;;;;;;17.60;76.30;;;;;;5071765;28;19915;-57
2022/07/04 01:07:41;;;;;;;;;;;17.60;77.30;;;;;;5071639;28;19908;-57
2022/07/04 01:10:07;;;;;;;;;;;17.60;78.00;;;;;;5065332;28;20368;-57
2022/07/04 01:12:33;;;;;;;;;;;17.50;76.90;;;;;;5071460;28;19915;-56
2022/07/04 01:14:58;;;;;;;;;;;17.50;77.00;;;;;;5071413;28;19908;-57
2022/07/04 01:17:24;;;;;;;;;;;17.50;76.60;;;;;;5071377;28;19999;-58
2022/07/04 01:19:49;;;;;;;;;;;17.50;76.80;;;;;;5072193;28;19966;-57
2022/07/04 01:22:15;;;;;;;;;;;17.50;77.30;;;;;;5071629;28;19915;-57
2022/07/04 01:24:41;;;;;;;;;;;17.50;77.00;;;;;;5071737;28;19908;-57
2022/07/04 01:27:06;;;;;;;;;;;17.40;77.40;;;;;;5070659;28;19920;-56
2022/07/04 01:29:32;;;;;;;;;;;17.40;76.70;;;;;;5070891;28;19962;-58
2022/07/04 01:32:03;;;;;;;;;;;17.40;76.20;;;;;;5072194;28;19948;-56
2022/07/04 01:34:28;;;;;;;;;;;17.40;76.60;;;;;;5071385;28;19966;-58
2022/07/04 01:36:54;;;;;;;;;;;17.30;76.80;;;;;;5070374;28;19951;-57
2022/07/04 01:39:19;;;;;;;;;;;17.30;76.70;;;;;;5070711;28;19917;-57
2022/07/04 01:41:45;;;;;;;;;;;17.30;77.10;;;;;;5039923;28;19916;-57
2022/07/04 01:44:10;;;;;;;;;;;17.20;76.70;;;;;;5071065;28;20338;-58
2022/07/04 01:46:36;;;;;;;;;;;17.30;76.10;;;;;;5069414;28;19928;-56
2022/07/04 01:49:01;;;;;;;;;;;17.20;77.00;;;;;;5064525;28;19912;-58
2022/07/04 01:51:27;;;;;;;;;;;17.20;76.90;;;;;;5070971;28;19908;-57
2022/07/04 01:53:52;;;;;;;;;;;17.20;77.00;;;;;;5069694;28;19908;-58
2022/07/04 01:56:18;;;;;;;;;;;17.10;76.90;;;;;;5071037;28;19908;-58
2022/07/04 01:58:43;;;;;;;;;;;17.20;76.60;;;;;;5071248;28;20384;-57
2022/07/04 02:03:53;;;;;;;;;;;17.10;77.20;;;;;;5071287;28;19915;-57
2022/07/04 02:06:18;;;;;;;;;;;17.10;76.70;;;;;;5071029;28;19939;-58
2022/07/04 02:11:28;;;;;;;;;;;17.00;77.30;;;;;;5070994;28;19915;-57
2022/07/04 02:13:54;;;;;;;;;;;17.00;76.60;;;;;;5070738;28;19908;-57
2022/07/04 02:16:19;;;;;;;;;;;17.00;77.10;;;;;;5070774;28;19978;-56
2022/07/04 02:18:45;;;;;;;;;;;17.00;77.80;;;;;;5070856;28;19924;-56
2022/07/04 02:21:10;;;;;;;;;;;17.00;78.00;;;;;;5071084;28;19908;-55
2022/07/04 02:23:36;;;;;;;;;;;17.00;78.00;;;;;;5070740;28;19915;-57
2022/07/04 02:26:01;;;;;;;;;;;16.90;77.40;;;;;;5066556;28;20073;-58
2022/07/04 02:28:26;;;;;;;;;;;17.00;77.40;;;;;;5071429;28;19908;-58
2022/07/04 02:30:52;;;;;;;;;;;16.90;77.90;;;;;;5070721;28;19948;-58
2022/07/04 02:33:17;;;;;;;;;;;16.90;78.60;;;;;;5064104;28;19916;-56
2022/07/04 02:35:43;;;;;;;;;;;16.90;78.00;;;;;;5070450;28;20356;-57
2022/07/04 02:38:08;;;;;;;;;;;16.90;77.60;;;;;;5070292;28;20733;-57
2022/07/04 02:40:34;;;;;;;;;;;16.90;78.60;;;;;;5067227;28;19951;-58
2022/07/04 02:42:59;;;;;;;;;;;16.90;78.10;;;;;;5070331;28;19919;-57
2022/07/04 02:45:25;;;;;;;;;;;16.80;78.50;;;;;;5070654;28;20082;-57
2022/07/04 02:47:50;;;;;;;;;;;16.80;78.60;;;;;;5070243;28;19928;-57
2022/07/04 02:50:16;;;;;;;;;;;16.70;78.60;;;;;;5070487;28;20377;-58
2022/07/04 02:52:41;;;;;;;;;;;16.70;78.20;;;;;;5070268;28;19912;-58
2022/07/04 02:55:07;;;;;;;;;;;16.70;79.00;;;;;;5073447;28;19909;-58
2022/07/04 02:57:32;;;;;;;;;;;16.70;78.40;;;;;;5074011;28;19920;-58
2022/07/04 02:59:58;;;;;;;;;;;16.70;78.30;;;;;;5072250;28;19981;-58
2022/07/04 03:02:23;;;;;;;;;;;16.70;79.30;;;;;;5070327;28;19908;-59
2022/07/04 03:04:49;;;;;;;;;;;16.70;80.00;;;;;;5074525;28;19916;-59
2022/07/04 03:07:14;;;;;;;;;;;16.70;79.20;;;;;;5074395;28;20428;-57
2022/07/04 03:09:40;;;;;;;;;;;16.60;78.70;;;;;;5073817;28;19912;-58
2022/07/04 03:12:06;;;;;;;;;;;16.60;80.00;;;;;;5074321;28;20012;-59
2022/07/04 03:14:31;;;;;;;;;;;16.60;79.50;;;;;;5073137;28;20391;-57
2022/07/04 03:16:57;;;;;;;;;;;16.60;80.30;;;;;;5067940;28;19912;-58
2022/07/04 03:19:22;;;;;;;;;;;16.50;80.80;;;;;;5074177;28;20434;-58
2022/07/04 03:21:48;;;;;;;;;;;16.50;79.60;;;;;;5073587;28;20266;-58
2022/07/04 03:24:13;;;;;;;;;;;16.50;79.70;;;;;;5073826;28;19919;-58
2022/07/04 03:26:38;;;;;;;;;;;16.50;79.90;;;;;;5055774;28;20373;-57
2022/07/04 03:29:04;;;;;;;;;;;16.50;79.80;;;;;;5073280;28;20355;-58
2022/07/04 03:31:30;;;;;;;;;;;16.40;80.40;;;;;;5073573;28;19909;-57
2022/07/04 03:33:55;;;;;;;;;;;16.40;80.10;;;;;;5055145;28;20384;-58
2022/07/04 03:36:21;;;;;;;;;;;16.40;82.00;;;;;;5072781;28;20327;-56
2022/07/04 03:38:47;;;;;;;;;;;16.30;82.00;;;;;;5073177;28;20073;-58
2022/07/04 03:41:13;;;;;;;;;;;16.40;81.50;;;;;;5072871;28;19923;-57
2022/07/04 03:43:39;;;;;;;;;;;16.30;81.60;;;;;;5054577;28;19954;-57
2022/07/04 03:46:04;;;;;;;;;;;16.30;81.00;;;;;;5073077;28;19987;-58
2022/07/04 03:48:30;;;;;;;;;;;16.30;80.90;;;;;;5073071;28;19919;-57
2022/07/04 03:50:55;;;;;;;;;;;16.30;81.90;;;;;;5073011;28;20373;-58
2022/07/04 03:53:21;;;;;;;;;;;16.30;82.00;;;;;;5072748;28;19962;-57
2022/07/04 03:55:47;;;;;;;;;;;16.20;82.80;;;;;;5066203;28;19913;-57
2022/07/04 03:58:12;;;;;;;;;;;16.20;81.70;;;;;;5073010;28;19974;-57
2022/07/04 04:00:38;;;;;;;;;;;16.20;81.80;;;;;;5041376;28;20285;-58
2022/07/04 04:05:25;;;;;;;;;;;16.10;81.80;;;;;;5072304;28;19912;-57
2022/07/04 04:05:49;;;;;;;;;;;16.10;82.10;;;;;;5072406;28;19913;-57
2022/07/04 04:08:14;;;;;;;;;;;16.10;82.90;;;;;;5072509;28;20438;-56
2022/07/04 04:10:39;;;;;;;;;;;16.10;83.60;;;;;;5073115;28;19912;-56
2022/07/04 04:13:05;;;;;;;;;;;16.00;84.00;;;;;;5070770;28;19909;-57
2022/07/04 04:15:30;;;;;;;;;;;16.00;82.40;;;;;;5072619;28;19912;-58
2022/07/04 04:17:56;;;;;;;;;;;16.00;82.70;;;;;;5072506;28;19921;-54
2022/07/04 04:20:21;;;;;;;;;;;16.10;83.90;;;;;;5072279;28;20016;-59
2022/07/04 04:22:47;;;;;;;;;;;16.10;83.20;;;;;;5063571;28;19909;-58
2022/07/04 04:25:12;;;;;;;;;;;16.00;84.10;;;;;;5072526;28;19935;-58
2022/07/04 04:27:38;;;;;;;;;;;16.00;83.50;;;;;;5072518;28;19952;-56
2022/07/04 04:30:04;;;;;;;;;;;16.10;83.00;;;;;;5072261;28;19912;-58
2022/07/04 04:32:29;;;;;;;;;;;16.10;84.60;;;;;;5065778;28;20033;-58
2022/07/04 04:34:55;;;;;;;;;;;16.10;83.30;;;;;;5073109;28;19999;-60
2022/07/04 04:37:20;;;;;;;;;;;16.10;82.90;;;;;;5065098;28;19966;-56
2022/07/04 04:39:46;;;;;;;;;;;16.10;83.30;;;;;;5072061;28;19908;-57
2022/07/04 04:42:11;;;;;;;;;;;16.10;84.20;;;;;;5072117;28;19909;-58
2022/07/04 04:44:37;;;;;;;;;;;16.10;83.70;;;;;;5072747;28;19995;-56
2022/07/04 04:47:02;;;;;;;;;;;16.10;84.10;;;;;;5072014;28;19921;-56
2022/07/04 04:49:28;;;;;;;;;;;16.20;83.80;;;;;;5072169;28;19909;-57
2022/07/04 04:51:53;;;;;;;;;;;16.20;84.30;;;;;;5071777;28;19909;-56
2022/07/04 04:54:19;;;;;;;;;;;16.30;84.10;;;;;;5072612;28;19916;-58
2022/07/04 04:56:44;;;;;;;;;;;16.30;84.20;;;;;;5071896;28;19913;-57
2022/07/04 04:59:10;;;;;;;;;;;16.40;84.50;;;;;;5072106;28;19921;-57
2022/07/04 05:01:35;;;;;;;;;;;16.40;84.70;;;;;;5072058;28;20004;-57
2022/07/04 05:04:01;;;;;;;;;;;16.50;85.00;;;;;;5072292;28;19909;-57
2022/07/04 05:06:26;;;;;;;;;;;16.50;84.50;;;;;;5071423;28;20361;-57
2022/07/04 05:08:52;;;;;;;;;;;16.50;84.50;;;;;;5072053;28;19908;-58
2022/07/04 05:11:17;;;;;;;;;;;16.60;84.50;;;;;;5071552;28;19909;-56
2022/07/04 05:13:43;;;;;;;;;;;16.60;83.80;;;;;;5072180;28;19913;-58
2022/07/04 05:16:08;;;;;;;;;;;16.70;84.20;;;;;;5065262;28;19916;-58
2022/07/04 05:18:34;;;;;;;;;;;16.70;84.30;;;;;;5071468;28;20011;-57
2022/07/04 05:20:59;;;;;;;;;;;16.70;84.20;;;;;;5071416;28;19996;-57
2022/07/04 05:23:25;;;;;;;;;;;16.80;84.30;;;;;;5071572;28;19909;-58
2022/07/04 05:25:50;;;;;;;;;;;16.80;84.40;;;;;;5071781;28;20002;-57
2022/07/04 05:28:16;;;;;;;;;;;16.80;83.90;;;;;;5071744;28;19914;-57
2022/07/04 05:30:42;;;;;;;;;;;16.80;84.40;;;;;;5071340;28;19908;-58
2022/07/04 05:33:07;;;;;;;;;;;16.80;84.10;;;;;;5071123;28;19909;-57
2022/07/04 05:35:33;;;;;;;;;;;16.80;84.50;;;;;;5071570;28;20357;-58
2022/07/04 05:37:58;;;;;;;;;;;16.80;84.70;;;;;;5064538;28;19924;-57
2022/07/04 05:40:24;;;;;;;;;;;16.90;84.60;;;;;;5071576;28;20003;-58
2022/07/04 05:42:49;;;;;;;;;;;16.90;84.50;;;;;;5071628;28;20361;-57
2022/07/04 05:45:15;;;;;;;;;;;16.90;84.30;;;;;;5071148;28;19909;-58
2022/07/04 05:47:41;;;;;;;;;;;16.90;84.40;;;;;;5071014;28;19931;-58
2022/07/04 05:50:07;;;;;;;;;;;17.00;85.40;;;;;;5070907;28;20564;-57
2022/07/04 05:52:32;;;;;;;;;;;17.00;85.00;;;;;;5071500;28;20599;-57
2022/07/04 05:54:58;;;;;;;;;;;17.00;85.20;;;;;;5064399;28;20266;-58
2022/07/04 05:57:23;;;;;;;;;;;17.00;85.00;;;;;;5071158;28;19954;-58
2022/07/04 05:59:49;;;;;;;;;;;17.00;85.40;;;;;;5071133;28;19914;-57
2022/07/04 06:02:15;;;;;;;;;;;17.10;85.60;;;;;;5052854;28;19909;-58
2022/07/04 06:04:40;;;;;;;;;;;17.10;84.60;;;;;;5071174;28;19916;-57
2022/07/04 06:07:06;;;;;;;;;;;17.20;84.70;;;;;;5070635;28;19970;-58
2022/07/04 06:09:32;;;;;;;;;;;17.20;84.90;;;;;;5071702;28;19909;-57
2022/07/04 06:11:58;;;;;;;;;;;17.20;84.90;;;;;;5064389;28;20428;-59
2022/07/04 06:14:23;;;;;;;;;;;17.20;84.90;;;;;;5070684;28;19913;-58
2022/07/04 06:16:49;;;;;;;;;;;17.20;85.00;;;;;;5070599;28;19908;-58
2022/07/04 06:19:14;;;;;;;;;;;17.30;85.30;;;;;;5070625;28;19920;-58
2022/07/04 06:21:40;;;;;;;;;;;17.20;85.20;;;;;;5070900;28;19919;-57
2022/07/04 06:24:05;;;;;;;;;;;17.30;84.70;;;;;;5070603;28;19908;-58
2022/07/04 06:26:31;;;;;;;;;;;17.40;84.80;;;;;;5070522;28;19913;-57
2022/07/04 06:28:57;;;;;;;;;;;17.40;84.80;;;;;;5072192;28;20022;-58
2022/07/04 06:31:22;;;;;;;;;;;17.40;84.60;;;;;;5074898;28;19915;-58
2022/07/04 06:36:33;;;;;;;;;;;17.50;84.50;;;;;;4991100;28;19993;-56
2022/07/04 06:38:59;;;;;;;;;;;17.50;84.60;;;;;;4977011;28;20012;-55
2022/07/04 06:41:25;;;;;;;;;;;17.50;84.50;;;;;;4969803;28;20304;-55
2022/07/04 06:43:50;;;;;;;;;;;17.60;84.10;;;;;;4974201;28;19920;-56
2022/07/04 06:46:16;;;;;;;;;;;17.50;84.30;;;;;;4974013;28;19925;-62
2022/07/04 06:48:41;;;;;;;;;;;17.50;84.40;;;;;;4974492;28;19914;-62
2022/07/04 06:51:07;;;;;;;;;;;17.60;84.70;;;;;;4976966;28;19918;-62
2022/07/04 06:53:32;;;;;;;;;;;17.70;84.60;;;;;;4974319;28;19910;-62
2022/07/04 06:55:58;;;;;;;;;;;17.70;84.40;;;;;;4973790;28;19911;-61
2022/07/04 06:58:23;;;;;;;;;;;17.80;84.30;;;;;;4973360;28;19918;-62
2022/07/04 07:00:49;;;;;;;;;;;17.80;84.30;;;;;;4973754;28;19914;-62
2022/07/04 07:03:14;;;;;;;;;;;17.80;84.40;;;;;;4973075;28;19910;-62
2022/07/04 07:05:40;;;;;;;;;;;17.80;84.20;;;;;;4972279;28;19914;-61
2022/07/04 07:08:06;;;;;;;;;;;17.90;84.30;;;;;;4967606;28;19972;-61
2022/07/04 07:10:35;;;;;;;;;;;17.90;84.30;;;;;;4978042;28;20390;-62
2022/07/04 07:13:01;;;;;;;;;;;18.00;84.00;;;;;;4999107;28;20126;-61
2022/07/04 07:15:27;;;;;;;;;;;18.00;83.90;;;;;;5072619;28;20392;-61
2022/07/04 07:17:52;;;;;;;;;;;18.10;83.90;;;;;;5071545;28;19962;-63
2022/07/04 07:20:18;;;;;;;;;;;18.10;83.70;;;;;;5070885;28;19920;-62
2022/07/04 07:22:43;;;;;;;;;;;18.20;83.70;;;;;;5070821;28;20392;-60
2022/07/04 07:25:09;;;;;;;;;;;18.20;83.20;;;;;;5072415;28;19916;-61
2022/07/04 07:27:35;;;;;;;;;;;18.20;82.70;;;;;;5071301;28;19916;-62
2022/07/04 07:30:01;;;;;;;;;;;18.10;82.60;;;;;;5071960;28;19919;-61
2022/07/04 07:32:26;;;;;;;;;;;18.20;82.70;;;;;;5071630;28;19912;-61
2022/07/04 07:34:52;;;;;;;;;;;18.20;82.70;;;;;;5070980;28;19913;-62
2022/07/04 07:37:17;;;;;;;;;;;18.20;82.60;;;;;;5070870;28;20289;-61
2022/07/04 07:39:43;;;;;;;;;;;18.20;81.70;;;;;;5068811;28;20011;-61
2022/07/04 07:42:09;;;;;;;;;;;18.20;82.10;;;;;;5070757;28;19918;-62
2022/07/04 07:44:34;;;;;;;;;;;18.30;82.20;;;;;;5070337;28;19913;-60
2022/07/04 07:47:00;;;;;;;;;;;18.30;81.40;;;;;;5071201;28;19947;-62
2022/07/04 07:49:25;;;;;;;;;;;18.30;80.80;;;;;;5070884;28;20511;-62
2022/07/04 07:51:51;;;;;;;;;;;18.30;81.20;;;;;;5069835;28;19995;-61
2022/07/04 07:54:17;;;;;;;;;;;18.30;80.70;;;;;;5070178;28;19912;-60
2022/07/04 07:56:42;;;;;;;;;;;18.30;80.50;;;;;;5070024;28;20456;-60
2022/07/04 07:59:08;;;;;;;;;;;18.30;80.40;;;;;;5070146;28;19920;-62
2022/07/04 08:01:33;;;;;;;;;;;18.40;80.30;;;;;;5071453;28;19920;-61
2022/07/04 08:06:43;;;;;;;;;;;18.40;80.20;;;;;;5070877;28;19923;-61
2022/07/04 08:09:08;;;;;;;;;;;18.40;80.00;;;;;;5070704;28;19912;-60
2022/07/04 08:11:34;;;;;;;;;;;18.50;79.80;;;;;;5070459;28;19909;-61
2022/07/04 08:13:59;;;;;;;;;;;18.50;79.80;;;;;;5070018;28;19912;-61
2022/07/04 08:16:25;;;;;;;;;;;18.50;79.70;;;;;;5070957;28;19952;-62
2022/07/04 08:18:51;;;;;;;;;;;18.50;80.10;;;;;;5069644;28;19921;-62
2022/07/04 08:21:16;;;;;;;;;;;18.60;79.90;;;;;;5073875;28;19912;-61
2022/07/04 08:23:42;;;;;;;;;;;18.60;80.10;;;;;;5077897;28;20280;-60
2022/07/04 08:26:07;;;;;;;;;;;18.60;79.80;;;;;;5074393;28;19916;-57
2022/07/04 08:28:33;;;;;;;;;;;18.60;79.70;;;;;;5069873;28;19913;-57
2022/07/04 08:30:58;;;;;;;;;;;18.70;78.90;;;;;;5069618;28;20003;-55
2022/07/04 08:33:24;;;;;;;;;;;18.70;78.50;;;;;;5069978;28;20682;-57
2022/07/04 08:35:50;;;;;;;;;;;18.70;78.70;;;;;;5068322;28;19919;-57
2022/07/04 08:38:16;;;;;;;;;;;18.80;79.10;;;;;;5065770;28;19920;-57
2022/07/04 08:40:41;;;;;;;;;;;18.80;79.20;;;;;;5070006;28;19912;-58
2022/07/04 08:43:08;;;;;;;;;;;18.90;79.10;;;;;;5069679;28;19913;-59
2022/07/04 08:45:34;;;;;;;;;;;18.90;78.70;;;;;;5069774;28;19919;-58
2022/07/04 08:48:01;;;;;;;;;;;18.90;79.30;;;;;;5069362;28;20011;-58
2022/07/04 08:50:29;;;;;;;;;;;19.00;79.10;;;;;;5069298;28;19964;-57
2022/07/04 08:53:14;;;;;;;;;;;19.00;78.20;;;;;;5072005;28;19966;-58
2022/07/04 08:58:25;;;;;;;;;;;19.10;78.50;;;;;;5072934;28;19943;-58
2022/07/04 09:00:52;;;;;;;;;;;19.10;77.80;;;;;;5073915;28;20376;-59
2022/07/04 09:03:18;;;;;;;;;;;19.20;78.20;;;;;;5075085;28;19916;-58
2022/07/04 09:05:44;;;;;;;;;;;19.20;77.20;;;;;;5070828;28;19916;-59
2022/07/04 09:08:09;;;;;;;;;;;19.20;77.10;;;;;;5070611;28;19939;-59
2022/07/04 09:10:35;;;;;;;;;;;19.20;77.60;;;;;;5065554;28;20276;-59
2022/07/04 09:13:03;;;;;;;;;;;19.30;77.40;;;;;;5069359;28;19951;-59
2022/07/04 09:15:28;;;;;;;;;;;19.30;76.70;;;;;;5066080;28;19920;-59
2022/07/04 09:17:54;;;;;;;;;;;19.30;77.20;;;;;;5067423;28;20266;-58
2022/07/04 09:20:21;;;;;;;;;;;19.40;77.20;;;;;;5068420;28;19912;-58
2022/07/04 09:22:47;;;;;;;;;;;19.40;77.00;;;;;;5068638;28;19930;-58
2022/07/04 09:25:14;;;;;;;;;;;19.50;76.70;;;;;;5069317;28;20019;-57
2022/07/04 09:27:42;;;;;;;;;;;19.50;76.20;;;;;;5068620;28;19912;-59
2022/07/04 09:30:08;;;;;;;;;;;19.60;76.10;;;;;;5067611;28;20277;-59
2022/07/04 09:32:35;;;;;;;;;;;19.60;76.20;;;;;;5068816;28;19971;-60
2022/07/04 09:35:01;;;;;;;;;;;19.50;76.10;;;;;;5069439;28;20010;-59
2022/07/04 09:37:37;;;;;;;;;;;19.60;75.40;;;;;;5069571;28;20373;-59
2022/07/04 09:40:04;;;;;;;;;;;19.60;75.10;;;;;;5067511;28;19967;-59
2022/07/04 09:42:41;;;;;;;;;;;19.60;74.60;;;;;;5073793;28;21701;-58
2022/07/04 09:45:11;;;;;;;;;;;19.60;74.60;;;;;;5071530;28;19947;-59
2022/07/04 09:47:38;;;;;;;;;;;19.60;74.40;;;;;;5065689;28;19994;-59
2022/07/04 09:50:06;;;;;;;;;;;19.70;74.80;;;;;;5068698;28;20372;-58
2022/07/04 09:52:32;;;;;;;;;;;19.70;74.10;;;;;;5068957;28;19912;-57
2022/07/04 09:54:59;;;;;;;;;;;19.80;74.10;;;;;;5068787;28;19961;-57
2022/07/04 09:57:24;;;;;;;;;;;19.80;74.00;;;;;;5068443;28;19923;-57
2022/07/04 09:59:50;;;;;;;;;;;19.90;73.30;;;;;;5067476;28;19916;-58
2022/07/04 10:02:15;;;;;;;;;;;19.90;73.30;;;;;;5068916;28;19913;-58
2022/07/04 10:04:45;;;;;;;;;;;19.90;73.30;;;;;;5067899;28;19978;-59
2022/07/04 10:07:10;;;;;;;;;;;20.00;72.70;;;;;;5067754;28;19936;-58
2022/07/04 10:09:36;;;;;;;;;;;20.00;72.20;;;;;;5067860;28;20384;-59
2022/07/04 10:12:02;;;;;;;;;;;20.00;73.00;;;;;;5068905;28;19920;-59
2022/07/04 10:14:27;;;;;;;;;;;20.10;71.30;;;;;;5068362;28;19982;-59
2022/07/04 10:16:54;;;;;;;;;;;20.00;71.80;;;;;;5068921;28;19966;-59
2022/07/04 10:19:19;;;;;;;;;;;20.10;72.10;;;;;;5069002;28;19920;-62
2022/07/04 10:21:46;;;;;;;;;;;20.10;71.80;;;;;;5073083;28;20309;-61
2022/07/04 10:24:11;;;;;;;;;;;20.20;72.00;;;;;;5068314;28;19916;-61
2022/07/04 10:26:37;;;;;;;;;;;20.20;72.20;;;;;;5068345;28;20383;-61
2022/07/04 10:29:02;;;;;;;;;;;20.20;72.70;;;;;;5049014;28;19919;-59
2022/07/04 10:31:29;;;;;;;;;;;20.30;72.50;;;;;;5067849;28;20418;-60
2022/07/04 10:33:55;;;;;;;;;;;20.30;73.20;;;;;;5068213;28;19958;-61
2022/07/04 10:36:21;;;;;;;;;;;20.40;72.40;;;;;;5070476;28;19917;-56
2022/07/04 10:38:46;;;;;;;;;;;20.40;70.80;;;;;;5062864;28;19924;-57
2022/07/04 10:41:12;;;;;;;;;;;20.40;70.10;;;;;;5070339;28;20498;-58
2022/07/04 10:43:50;;;;;;;;;;;20.40;70.70;;;;;;5070765;28;19909;-58
2022/07/04 10:46:16;;;;;;;;;;;20.40;70.40;;;;;;5080600;28;19927;-56
2022/07/04 10:48:52;;;;;;;;;;;20.50;69.40;;;;;;5074349;28;19918;-56
2022/07/04 10:51:41;;;;;;;;;;;20.40;69.70;;;;;;5069737;28;19991;-57
2022/07/04 10:54:08;;;;;;;;;;;20.50;69.50;;;;;;5070219;28;20495;-57
2022/07/04 10:56:35;;;;;;;;;;;20.50;69.00;;;;;;5070215;28;19908;-58
2022/07/04 10:59:02;;;;;;;;;;;20.50;68.70;;;;;;5065195;28;19924;-56
2022/07/04 11:01:28;;;;;;;;;;;20.60;68.30;;;;;;5070503;28;19916;-57
2022/07/04 11:03:54;;;;;;;;;;;20.60;68.50;;;;;;5071189;28;19909;-58
2022/07/04 11:06:32;;;;;;;;;;;20.60;68.00;;;;;;5069641;28;20348;-58
2022/07/04 11:09:30;;;;;;;;;;;20.60;67.80;;;;;;5069929;28;19920;-57
2022/07/04 11:12:06;;;;;;;;;;;20.60;68.30;;;;;;4989292;28;19916;-58
2022/07/04 11:14:40;;;;;;;;;;;20.70;68.10;;;;;;4984500;28;19917;-57
2022/07/04 11:17:18;;;;;;;;;;;20.70;67.40;;;;;;4985738;28;20401;-57
2022/07/04 11:19:44;;;;;;;;;;;20.80;68.10;;;;;;4988441;28;19930;-58
2022/07/04 11:22:10;;;;;;;;;;;20.90;67.20;;;;;;4992534;28;19941;-56
2022/07/04 11:24:36;;;;;;;;;;;20.90;67.60;;;;;;4992180;28;19910;-57
2022/07/04 11:27:02;;;;;;;;;;;20.90;67.60;;;;;;4992515;28;20389;-58
2022/07/04 11:29:29;;;;;;;;;;;20.90;67.90;;;;;;4992149;28;20021;-58
2022/07/04 11:31:55;;;;;;;;;;;20.90;67.50;;;;;;4992452;28;19910;-59
2022/07/04 11:34:21;;;;;;;;;;;20.90;68.00;;;;;;4989860;28;19909;-58
2022/07/04 11:36:48;;;;;;;;;;;20.90;68.30;;;;;;4991584;28;20319;-58
2022/07/04 11:39:18;;;;;;;;;;;20.90;67.70;;;;;;4992014;28;19921;-58
2022/07/04 11:47:19;;;;;;;;;;;21.10;67.10;;;;;;5023297;28;19927;-56
2022/07/04 11:49:54;;;;;;;;;;;21.20;67.90;;;;;;5067041;28;19917;-58
2022/07/04 11:52:21;;;;;;;;;;;21.30;67.60;;;;;;5073393;28;19987;-57
2022/07/04 11:54:47;;;;;;;;;;;21.30;66.70;;;;;;5066961;28;19913;-58
2022/07/04 11:57:17;;;;;;;;;;;21.40;65.60;;;;;;5073340;28;19912;-57
2022/07/04 11:59:43;;;;;;;;;;;21.50;65.80;;;;;;5073289;28;20007;-57
2022/07/04 12:02:15;;;;;;;;;;;21.50;65.50;;;;;;5073315;28;20003;-58
2022/07/04 12:04:41;;;;;;;;;;;21.50;65.90;;;;;;5073602;28;19916;-57
2022/07/04 12:07:17;;;;;;;;;;;21.50;65.20;;;;;;5072698;28;19908;-57
2022/07/04 12:09:44;;;;;;;;;;;21.60;65.80;;;;;;5073298;28;20357;-53
2022/07/04 12:12:10;;;;;;;;;;;21.60;66.60;;;;;;5072631;28;19916;-58
2022/07/04 12:14:36;;;;;;;;;;;21.70;65.60;;;;;;5073195;28;19915;-58
2022/07/04 12:17:08;;;;;;;;;;;21.70;66.20;;;;;;5073344;28;20347;-58
2022/07/04 12:19:34;;;;;;;;;;;21.70;65.90;;;;;;5073079;28;20296;-56
2022/07/04 12:21:59;;;;;;;;;;;21.70;65.70;;;;;;5041198;28;19909;-58
2022/07/04 12:24:26;;;;;;;;;;;21.70;65.40;;;;;;5072555;28;19947;-58
2022/07/04 12:26:51;;;;;;;;;;;21.80;65.20;;;;;;5071854;28;19908;-55
2022/07/04 12:29:21;;;;;;;;;;;21.80;65.00;;;;;;5072857;28;19920;-57
2022/07/04 12:31:50;;;;;;;;;;;21.80;65.20;;;;;;5073155;28;19934;-57
2022/07/04 12:34:16;;;;;;;;;;;21.90;64.20;;;;;;5072753;28;19916;-58
2022/07/04 12:36:48;;;;;;;;;;;21.90;64.40;;;;;;5072249;28;19920;-58
2022/07/04 12:39:26;;;;;;;;;;;21.90;64.10;;;;;;5072495;28;19917;-58
2022/07/04 12:42:03;;;;;;;;;;;21.90;65.00;;;;;;5072413;28;19915;-58
2022/07/04 12:44:28;;;;;;;;;;;21.90;64.70;;;;;;5072590;28;19909;-58
2022/07/04 12:46:56;;;;;;;;;;;21.90;64.90;;;;;;5072936;28;20349;-58
2022/07/04 12:49:21;;;;;;;;;;;21.90;64.20;;;;;;5071922;28;19936;-56
2022/07/04 12:51:47;;;;;;;;;;;22.00;64.80;;;;;;5072241;28;20392;-57
2022/07/04 12:54:12;;;;;;;;;;;22.00;63.80;;;;;;5072471;28;19917;-58
2022/07/04 12:56:40;;;;;;;;;;;22.10;63.90;;;;;;5072572;28;20007;-58
2022/07/04 12:59:06;;;;;;;;;;;22.10;63.70;;;;;;5072128;28;19959;-58
2022/07/04 13:01:32;;;;;;;;;;;22.10;63.60;;;;;;5071853;28;20612;-58
2022/07/04 13:03:59;;;;;;;;;;;22.10;63.90;;;;;;5072128;28;19912;-58
2022/07/04 13:06:24;;;;;;;;;;;22.20;64.00;;;;;;5071633;28;19915;-57
2022/07/04 13:08:50;;;;;;;;;;;22.30;64.60;;;;;;5072138;28;19913;-58
2022/07/04 13:13:59;;;;;;;;;;;22.30;63.00;;;;;;5065539;28;19958;-59
2022/07/04 13:16:25;;;;;;;;;;;22.40;60.90;;;;;;5053944;28;19912;-58
2022/07/04 13:18:50;;;;;;;;;;;22.40;60.40;;;;;;5068620;28;20369;-57
2022/07/04 13:21:16;;;;;;;;;;;22.30;61.40;;;;;;5071538;28;19916;-57
2022/07/04 13:23:42;;;;;;;;;;;22.30;61.50;;;;;;5071875;28;19954;-57
2022/07/04 13:26:07;;;;;;;;;;;22.30;59.90;;;;;;5065265;28;20381;-57
2022/07/04 13:28:33;;;;;;;;;;;22.30;60.00;;;;;;5071823;28;20373;-57
2022/07/04 13:30:58;;;;;;;;;;;22.40;59.90;;;;;;5071808;28;19976;-58
2022/07/04 13:33:24;;;;;;;;;;;22.40;60.90;;;;;;5071219;28;19913;-58
2022/07/04 13:35:49;;;;;;;;;;;22.40;60.60;;;;;;5071020;28;20377;-58
2022/07/04 13:38:15;;;;;;;;;;;22.50;60.60;;;;;;5053075;28;19916;-56
2022/07/04 13:40:44;;;;;;;;;;;22.60;60.50;;;;;;5052966;28;19953;-56
2022/07/04 13:43:11;;;;;;;;;;;22.60;60.70;;;;;;5064449;28;20495;-58
2022/07/04 13:45:39;;;;;;;;;;;22.60;60.60;;;;;;5070511;28;19916;-56
2022/07/04 13:48:05;;;;;;;;;;;22.70;60.10;;;;;;5069867;28;19920;-58
2022/07/04 13:50:30;;;;;;;;;;;22.80;60.20;;;;;;5065113;28;20320;-58
2022/07/04 13:52:56;;;;;;;;;;;22.80;59.60;;;;;;5067471;28;20007;-58
2022/07/04 13:55:21;;;;;;;;;;;22.80;59.00;;;;;;5068314;28;19999;-58
2022/07/04 13:57:47;;;;;;;;;;;22.90;58.40;;;;;;5069980;28;20308;-58
2022/07/04 14:00:12;;;;;;;;;;;22.90;57.90;;;;;;5050757;28;19923;-58
2022/07/04 14:02:38;;;;;;;;;;;23.00;57.70;;;;;;5068614;28;19916;-58
2022/07/04 14:05:03;;;;;;;;;;;23.00;58.40;;;;;;5068588;28;19919;-57
2022/07/04 14:07:29;;;;;;;;;;;23.00;57.40;;;;;;5066852;28;19917;-58
2022/07/04 14:09:54;;;;;;;;;;;23.00;57.30;;;;;;5069337;28;19913;-57
2022/07/04 14:12:20;;;;;;;;;;;23.10;57.20;;;;;;5077509;28;19923;-56
2022/07/04 14:14:46;;;;;;;;;;;23.00;57.40;;;;;;5074408;28;19974;-57
2022/07/04 14:17:11;;;;;;;;;;;23.10;58.00;;;;;;5067410;28;19913;-56
2022/07/04 14:19:37;;;;;;;;;;;23.10;57.80;;;;;;5068723;28;20615;-58
2022/07/04 14:22:02;;;;;;;;;;;23.20;57.40;;;;;;5066751;28;19966;-57
2022/07/04 14:24:28;;;;;;;;;;;23.20;56.10;;;;;;5043210;28;20006;-58
2022/07/04 14:26:54;;;;;;;;;;;23.20;56.50;;;;;;5064678;28;19939;-57
2022/07/04 14:29:19;;;;;;;;;;;23.20;56.00;;;;;;5068818;28;20277;-58
2022/07/04 14:31:45;;;;;;;;;;;23.20;56.90;;;;;;5067908;28;19916;-57
2022/07/04 14:34:11;;;;;;;;;;;23.30;57.70;;;;;;5066925;28;20003;-58